Kewanee, IL (61443)

12:49 AM CST on February 09, 2016 (GMT -0600)
Rockwell St. | | Change Station
CLOSE
Current Station
Personal Weather Station
Location: Kewanee, IL
Elevation: 858 ft
Nearby Weather Stations
Active Advisory: Special Statement

Elev 858 ft 41.24 °N, 89.93 °W | Updated 0 second ago

Overcast
Overcast
15.4 °F
Feels Like 4 °F
N
9.4
Wind Variable Wind from West
Gusts 18.1 mph

Today
High -- | Low -- °F
--% Chance of Precip.
Yesterday
High -- | Low -- °F
Precip. -- in
Pressure 29.85 in
Visibility 3.0 miles
Clouds Scattered Clouds 1300 ft
Mostly Cloudy 2700 ft
Overcast 4400 ft
Windchill 4 °F
Dew Point 12 °F
Humidity 86%
Rainfall 0.00 in
Snow Depth Not available.
7:02 AM 5:25 PM
New Moon, 1% visible
METAR KGBG 090635Z AUTO 29013KT 3SM -SN SCT013 BKN027 OVC044 M09/M10 A2985 RMK AO2 T10861105
Pressure 29.85 in
Visibility 3.0 miles
Clouds Scattered Clouds 1300 ft
Mostly Cloudy 2700 ft
Overcast 4400 ft
Windchill 4 °F
Dew Point 12 °F
Humidity 86%
Rainfall 0.00 in
Snow Depth Not available.
7:02 AM 5:25 PM
New Moon, 1% visible
METAR KGBG 090635Z AUTO 29013KT 3SM -SN SCT013 BKN027 OVC044 M09/M10 A2985 RMK AO2 T10861105

10-Day Weather Forecast

Almanac

Astronomy

Feb. 09, 2016 Rise Set
Actual Time
Civil Twilight
Nautical Twilight
Astronomical Twilight
Moon
Length of Visible Light
Length of Day
Tomorrow will be .
, % of the Moon is Illuminated

Today's Extremes

State Highs State Lows

Community

WunderPhotos

Upload Photos

1,891,571 photos uploaded!

WunderBlog® & News

Nearby

Air Quality

  Air Quality AQ Index Pollutant
Not available.

Snow Depth

Station Depth Elevation

Earthquake Activity

City Distance Mag. Time & Date
Minimum magnitude displayed is 2.5.

Coastal Water Temperatures

Place Temperature

Stations

Nearby Weather Stations

Station Location Temp. Windchill Dew Point Humidity Wind Precip. Elev Updated Type
                   

Watches & Warnings

Special Statement
Issued: 11:08 PM CST Feb. 8, 2016 – National Weather Service

... Light snow and flurries through 2 am...

Areas of flurries and light snow will continue through 2 am before
diminishing. Any additional snow totals will be light with a dusting
to possibly a tenth or two of fresh powdery snow. Area roads remain
in mostly good condition from Iowa Department of Transportation with
patchy snow possible on some roadways.

Motorist should drive defensively if they observed snow and ice on
area roadways.


Nichols